Time;durP1;ratioP1;P1;durP2;ratioP2;P2;SDS_P1;SDS_P2;PMS_P1;PMS_P2;Temp;Humidity;BMP_temperature;BMP_pressure;BME280_temperature;BME280_humidity;BME280_pressure;Samples;Min_cycle;Max_cycle;Signal;HPM_P1;HPM_P2
2020/12/05 00:00:24;;;;;;;;;36.70;29.10;;;;;2.07;69.39;101990.46;479804;113;385447;-78
2020/12/05 00:01:29;;;;;;;;;37.50;30.30;;;;;2.03;69.94;101989.65;480053;113;385125;-76
2020/12/05 00:02:32;;;;;;;;;32.10;25.30;;;;;2.03;69.94;101989.65;479807;113;383818;-76
2020/12/05 00:03:36;;;;;;;;;35.40;28.70;;;;;2.04;69.05;101986.11;479995;113;386400;-75
2020/12/05 00:04:40;;;;;;;;;37.40;30.80;;;;;2.04;69.05;101986.11;479558;113;384469;-75
2020/12/05 00:05:46;;;;;;;;;33.40;30.90;;;;;2.02;69.45;101987.03;479948;113;385510;-76
2020/12/05 00:06:50;;;;;;;;;34.90;29.00;;;;;2.04;69.34;101991.36;477187;113;386696;-76
2020/12/05 00:07:53;;;;;;;;;34.80;29.70;;;;;2.04;69.69;101991.36;477978;114;385819;-75
2020/12/05 00:08:57;;;;;;;;;39.10;33.40;;;;;2.00;69.93;101989.70;478006;114;386206;-74
2020/12/05 00:10:01;;;;;;;;;36.50;31.90;;;;;2.01;70.06;101986.16;477996;114;385811;-74
2020/12/05 00:11:05;;;;;;;;;32.60;27.90;;;;;2.01;70.06;101986.16;478066;114;390800;-75
2020/12/05 00:12:09;;;;;;;;;47.40;37.90;;;;;2.05;69.64;101990.47;478014;114;386166;-73
2020/12/05 00:13:14;;;;;;;;;38.80;35.10;;;;;2.04;70.09;101986.11;479759;113;385297;-75
2020/12/05 00:14:18;;;;;;;;;34.70;30.40;;;;;2.07;70.19;101988.67;480052;113;383967;-74
2020/12/05 00:15:21;;;;;;;;;38.60;33.80;;;;;2.07;70.53;101990.46;478066;114;386010;-73
2020/12/05 00:16:26;;;;;;;;;36.90;34.70;;;;;2.06;68.60;101997.46;477720;114;387184;-73
2020/12/05 00:17:31;;;;;;;;;38.10;30.30;;;;;2.07;68.84;101995.70;480041;113;385037;-74
2020/12/05 00:18:35;;;;;;;;;32.00;27.30;;;;;2.03;68.66;101994.90;477819;114;382958;-73
2020/12/05 00:19:42;;;;;;;;;28.70;24.50;;;;;2.03;68.57;101989.65;480046;113;382967;-73
2020/12/05 00:20:47;;;;;;;;;28.50;25.10;;;;;1.99;69.17;101998.46;477513;114;383118;-73
2020/12/05 00:21:52;;;;;;;;;38.10;30.20;;;;;1.96;68.72;101995.89;480007;113;386418;-73
2020/12/05 00:22:56;;;;;;;;;33.30;25.60;;;;;1.93;68.54;102002.95;479750;113;392031;-73
2020/12/05 00:24:00;;;;;;;;;38.20;29.40;;;;;1.92;68.46;101996.83;472803;115;385062;-74
2020/12/05 00:25:04;;;;;;;;;30.60;28.50;;;;;1.92;68.46;101996.83;473144;115;384537;-73
2020/12/05 00:26:09;;;;;;;;;34.80;29.70;;;;;1.94;68.14;102002.06;477767;114;385556;-74
2020/12/05 00:27:13;;;;;;;;;31.10;26.20;;;;;1.94;68.14;102002.06;478105;114;382703;-71
2020/12/05 00:28:17;;;;;;;;;32.40;27.90;;;;;1.85;67.56;102000.45;479996;113;388315;-73
2020/12/05 00:29:21;;;;;;;;;31.30;26.90;;;;;1.85;67.56;102000.45;480044;113;389587;-73
2020/12/05 00:30:28;;;;;;;;;28.10;24.80;;;;;1.86;66.78;101999.56;477708;114;384590;-73
2020/12/05 00:31:32;;;;;;;;;33.70;27.10;;;;;1.80;68.21;102002.30;477455;114;384042;-74
2020/12/05 00:32:36;;;;;;;;;33.60;27.60;;;;;1.80;68.21;102002.30;479971;113;384164;-73
2020/12/05 00:33:40;;;;;;;;;29.30;24.60;;;;;1.84;67.68;102006.61;480148;113;382987;-73
2020/12/05 00:34:44;;;;;;;;;30.90;25.10;;;;;1.84;67.68;102006.61;478060;114;383751;-72
2020/12/05 00:35:48;;;;;;;;;30.36;23.91;;;;;1.83;67.15;101996.13;478056;114;389547;-72
2020/12/05 00:36:53;;;;;;;;;36.80;30.70;;;;;1.83;67.15;101996.13;479731;113;386003;-72
2020/12/05 00:37:57;;;;;;;;;31.90;26.70;;;;;1.72;67.41;102000.70;477793;114;383624;-72
2020/12/05 00:39:01;;;;;;;;;29.20;26.70;;;;;1.70;67.04;101999.84;479680;113;390017;-73
2020/12/05 00:40:05;;;;;;;;;27.80;26.00;;;;;1.75;67.21;102004.14;479771;113;384180;-75
2020/12/05 00:41:10;;;;;;;;;27.60;24.60;;;;;1.75;67.37;102000.66;478107;114;384422;-74
2020/12/05 00:42:14;;;;;;;;;23.70;20.30;;;;;1.58;66.76;101979.95;477800;114;383720;-74
2020/12/05 00:43:18;;;;;;;;;29.10;23.00;;;;;1.58;66.76;101979.95;479596;113;383570;-73
2020/12/05 00:44:22;;;;;;;;;30.70;26.60;;;;;1.76;66.94;101992.73;480007;113;383424;-73
2020/12/05 00:45:26;;;;;;;;;34.50;27.70;;;;;1.73;67.56;101997.17;477689;114;384766;-73
2020/12/05 00:46:31;;;;;;;;;35.20;31.40;;;;;1.74;66.70;101991.91;477505;114;391886;-73
2020/12/05 00:47:35;;;;;;;;;32.10;27.20;;;;;1.74;66.70;101991.91;480012;113;383343;-74
2020/12/05 00:48:39;;;;;;;;;30.30;24.80;;;;;1.69;67.60;101995.52;479762;113;383381;-71
2020/12/05 00:49:43;;;;;;;;;32.50;27.00;;;;;1.69;67.60;101995.52;480029;113;385661;-71
2020/12/05 00:50:48;;;;;;;;;32.60;28.40;;;;;1.63;66.95;101996.45;479777;113;385832;-72
2020/12/05 00:51:52;;;;;;;;;23.20;19.40;;;;;1.64;67.90;101995.58;477857;114;387500;-73
2020/12/05 00:52:56;;;;;;;;;32.00;27.50;;;;;1.64;67.90;101995.58;472402;115;387230;-73
2020/12/05 00:54:00;;;;;;;;;28.60;26.00;;;;;1.58;67.29;101964.22;472977;115;385267;-74
2020/12/05 00:55:04;;;;;;;;;28.80;25.50;;;;;1.69;67.27;101993.77;478044;114;389837;-74
2020/12/05 00:56:09;;;;;;;;;32.30;25.00;;;;;1.64;66.67;101987.70;479812;113;384081;-73
2020/12/05 00:57:13;;;;;;;;;30.60;26.00;;;;;1.64;66.67;101987.70;479987;113;384427;-73
2020/12/05 00:58:17;;;;;;;;;30.10;23.10;;;;;1.58;66.63;101991.31;478020;114;390333;-75
2020/12/05 00:59:20;;;;;;;;;31.40;28.20;;;;;1.52;67.73;101994.03;478064;114;384670;-75
2020/12/05 01:00:24;;;;;;;;;25.10;19.80;;;;;1.55;66.81;101990.48;477690;114;384001;-71
2020/12/05 01:01:28;;;;;;;;;30.40;23.90;;;;;1.51;67.25;101996.66;478082;114;383914;-73
2020/12/05 01:02:32;;;;;;;;;21.30;12.70;;;;;1.57;66.77;101993.94;479715;113;382022;-72
2020/12/05 01:03:36;;;;;;;;;30.10;27.00;;;;;1.56;67.00;101989.61;478104;114;383832;-71
2020/12/05 01:04:40;;;;;;;;;23.90;21.40;;;;;1.56;66.74;101993.06;478133;114;381771;-73
2020/12/05 01:05:44;;;;;;;;;29.80;22.80;;;;;1.56;66.74;101993.06;480072;113;383919;-72
2020/12/05 01:06:48;;;;;;;;;29.90;24.00;;;;;1.61;66.20;101995.63;479771;113;383052;-73
2020/12/05 01:07:52;;;;;;;;;33.30;24.90;;;;;1.61;66.20;101995.63;479559;113;390860;-72
2020/12/05 01:08:56;;;;;;;;;26.00;23.80;;;;;1.55;66.85;101998.36;480162;113;383755;-74
2020/12/05 01:10:00;;;;;;;;;30.70;23.60;;;;;1.52;66.26;101996.66;477721;114;383427;-73
2020/12/05 01:11:04;;;;;;;;;27.60;22.30;;;;;1.46;66.62;101996.75;478071;114;390365;-74
2020/12/05 01:12:07;;;;;;;;;28.70;24.60;;;;;1.55;67.26;102006.22;478032;114;391052;-75
2020/12/05 01:13:11;;;;;;;;;24.40;22.00;;;;;1.49;66.97;102001.08;479667;113;382782;-72
2020/12/05 01:14:15;;;;;;;;;29.20;24.30;;;;;1.45;66.86;102000.26;477749;114;383566;-72
2020/12/05 01:15:19;;;;;;;;;32.30;25.40;;;;;1.45;66.86;102000.26;472907;115;382791;-72
2020/12/05 01:16:24;;;;;;;;;27.90;23.00;;;;;1.41;66.66;102008.18;473031;115;383675;-73
2020/12/05 01:17:28;;;;;;;;;25.80;22.30;;;;;1.32;66.75;101997.84;479790;113;382783;-75
2020/12/05 01:18:32;;;;;;;;;27.50;20.90;;;;;1.26;66.90;102008.42;478063;114;384156;-72
2020/12/05 01:19:36;;;;;;;;;26.80;22.50;;;;;1.30;66.33;102010.12;480073;113;382775;-73
2020/12/05 01:20:40;;;;;;;;;25.80;17.60;;;;;1.30;66.33;102010.12;479937;113;382651;-73
2020/12/05 01:21:45;;;;;;;;;26.30;23.40;;;;;1.34;66.98;102003.95;480074;113;383184;-72
2020/12/05 01:22:49;;;;;;;;;23.20;21.70;;;;;1.34;66.53;102017.05;477368;114;382713;-71
2020/12/05 01:23:53;;;;;;;;;29.30;25.40;;;;;1.35;66.07;102019.63;480075;113;383804;-72
2020/12/05 01:24:57;;;;;;;;;24.70;21.50;;;;;1.34;65.65;102015.27;478131;114;382293;-72
2020/12/05 01:26:01;;;;;;;;;28.50;22.00;;;;;1.34;65.65;102015.27;480048;113;382435;-72
2020/12/05 01:27:04;;;;;;;;;26.60;25.40;;;;;1.36;65.56;102015.26;477619;114;385958;-70
2020/12/05 01:28:08;;;;;;;;;28.60;23.40;;;;;1.36;65.56;102015.26;477759;114;384328;-71
2020/12/05 01:29:12;;;;;;;;;24.90;19.60;;;;;1.31;65.57;102015.31;477621;114;383193;-72
2020/12/05 01:30:16;;;;;;;;;25.40;23.60;;;;;1.33;65.11;102024.05;479352;113;382426;-72
2020/12/05 01:31:20;;;;;;;;;20.80;19.40;;;;;1.36;65.05;102018.75;480163;113;381517;-71
2020/12/05 01:32:24;;;;;;;;;23.50;21.40;;;;;1.35;65.67;102013.52;479674;113;391919;-72
2020/12/05 01:33:29;;;;;;;;;30.00;26.00;;;;;1.35;65.67;102013.52;480048;113;382772;-74
2020/12/05 01:34:33;;;;;;;;;29.50;24.60;;;;;1.33;65.59;102010.06;479494;113;383196;-73
2020/12/05 01:35:37;;;;;;;;;26.70;22.80;;;;;1.38;65.21;102011.72;480083;113;381920;-74
2020/12/05 01:36:45;;;;;;;;;24.30;20.80;;;;;1.37;64.43;102015.22;479336;113;388368;-76
2020/12/05 01:37:48;;;;;;;;;32.10;24.80;;;;;1.32;64.70;102014.44;479795;113;384941;-74
2020/12/05 01:38:52;;;;;;;;;34.40;22.90;;;;;1.32;64.70;102014.44;480002;113;386007;-72
2020/12/05 01:39:56;;;;;;;;;25.40;22.90;;;;;1.31;65.01;102011.86;480078;113;384780;-72
2020/12/05 01:41:00;;;;;;;;;24.60;23.50;;;;;1.29;65.07;102016.23;479626;113;383418;-73
2020/12/05 01:42:04;;;;;;;;;33.00;23.50;;;;;1.30;64.81;102020.59;479297;113;384070;-73
2020/12/05 01:43:08;;;;;;;;;24.60;21.60;;;;;1.26;64.95;102018.91;478183;114;382339;-73
2020/12/05 01:44:12;;;;;;;;;27.30;21.80;;;;;1.26;64.95;102018.91;477990;114;392543;-73
2020/12/05 01:45:16;;;;;;;;;34.60;21.70;;;;;1.27;64.77;102015.41;479517;113;385474;-72
2020/12/05 01:46:29;;;;;;;;;28.50;22.00;;;;;1.34;65.37;102017.05;479433;113;383293;-74
2020/12/05 01:47:33;;;;;;;;;25.20;21.30;;;;;1.39;65.30;102020.45;478850;113;384625;-72
2020/12/05 01:48:37;;;;;;;;;26.80;24.20;;;;;1.39;65.30;102020.45;479861;113;383049;-72
2020/12/05 01:49:41;;;;;;;;;25.30;23.70;;;;;1.38;65.44;102010.84;478126;114;382963;-73
2020/12/05 01:50:45;;;;;;;;;34.10;25.90;;;;;1.40;65.71;102012.58;479820;113;383282;-73
2020/12/05 01:51:49;;;;;;;;;30.10;25.20;;;;;1.45;65.85;102009.87;477703;114;384773;-72
2020/12/05 01:52:53;;;;;;;;;31.60;28.70;;;;;1.46;65.60;102017.73;478082;114;383580;-74
2020/12/05 01:53:57;;;;;;;;;27.20;23.90;;;;;1.45;64.86;102017.73;480101;113;383236;-73
2020/12/05 01:55:03;;;;;;;;;24.60;18.70;;;;;1.44;64.75;102013.37;479622;113;389479;-73
2020/12/05 01:56:07;;;;;;;;;29.80;25.30;;;;;1.44;64.75;102013.37;477633;114;383246;-73
2020/12/05 01:57:10;;;;;;;;;30.10;23.60;;;;;1.43;64.03;102009.05;478120;114;383692;-72
2020/12/05 01:58:14;;;;;;;;;29.00;25.90;;;;;1.43;64.03;102009.05;479595;113;390507;-72
2020/12/05 01:59:18;;;;;;;;;25.70;24.30;;;;;1.41;64.53;102013.42;479357;113;382571;-74
2020/12/05 02:00:24;;;;;;;;;30.70;24.60;;;;;1.41;64.67;102010.80;477454;114;383560;-75
2020/12/05 02:01:28;;;;;;;;;26.80;25.60;;;;;1.39;64.89;102009.97;478115;114;382885;-75
2020/12/05 02:02:32;;;;;;;;;23.20;20.80;;;;;1.39;64.89;102009.97;479361;113;382336;-75
2020/12/05 02:03:36;;;;;;;;;27.10;22.40;;;;;1.35;64.99;102003.03;480117;113;383510;-76
2020/12/05 02:04:44;;;;;;;;;28.30;23.10;;;;;1.33;65.68;102008.31;477579;114;384945;-73
2020/12/05 02:05:57;;;;;;;;;27.60;23.60;;;;;1.32;64.67;102008.33;477050;114;383208;-75
2020/12/05 02:07:17;;;;;;;;;24.90;21.00;;;;;1.32;64.75;102008.33;477650;114;384182;-74
2020/12/05 02:08:26;;;;;;;;;30.60;21.00;;;;;1.32;64.75;102008.33;477485;114;385940;-72
2020/12/05 02:09:32;;;;;;;;;28.00;23.50;;;;;1.30;65.80;102010.12;480359;113;384852;-76
2020/12/05 02:10:38;;;;;;;;;23.70;22.30;;;;;1.30;65.73;102008.37;480681;113;382522;-73
2020/12/05 02:11:44;;;;;;;;;24.30;18.60;;;;;1.28;65.99;102006.63;477606;114;384180;-73
2020/12/05 02:12:50;;;;;;;;;31.00;25.70;;;;;1.28;65.62;102006.63;479532;113;382602;-73
2020/12/05 02:13:56;;;;;;;;;31.00;27.60;;;;;1.27;65.59;102007.54;477499;114;384419;-72
2020/12/05 02:15:06;;;;;;;;;27.40;23.50;;;;;1.27;65.59;102007.54;477530;114;388824;-72
2020/12/05 02:16:11;;;;;;;;;25.50;21.80;;;;;1.21;65.40;102010.26;478967;113;382946;-72
2020/12/05 02:17:15;;;;;;;;;27.30;20.90;;;;;1.24;64.95;102015.45;480048;113;383356;-72
2020/12/05 02:18:18;;;;;;;;;22.80;19.90;;;;;1.27;64.19;102016.28;478074;114;382059;-73
2020/12/05 02:19:23;;;;;;;;;27.20;22.50;;;;;1.27;64.19;102016.28;477956;114;389679;-73
2020/12/05 02:20:29;;;;;;;;;27.50;24.80;;;;;1.27;64.73;102013.66;479593;113;383738;-72
2020/12/05 02:21:33;;;;;;;;;20.90;16.90;;;;;1.27;64.87;102011.03;477599;114;383115;-74
2020/12/05 02:22:39;;;;;;;;;30.50;26.10;;;;;1.29;64.81;102010.99;480052;113;383915;-74
2020/12/05 02:23:46;;;;;;;;;29.60;26.20;;;;;1.30;65.11;102013.61;479292;113;385142;-75
2020/12/05 02:24:50;;;;;;;;;28.70;23.30;;;;;1.30;65.11;102013.61;477492;114;390626;-75
2020/12/05 02:25:55;;;;;;;;;34.30;24.10;;;;;1.32;65.32;102011.81;478004;114;384670;-75
2020/12/05 02:26:59;;;;;;;;;26.80;22.90;;;;;1.23;64.19;102013.70;479600;113;383474;-77
2020/12/05 02:28:07;;;;;;;;;21.20;18.50;;;;;1.23;64.19;102013.70;480000;113;382895;-74
2020/12/05 02:29:11;;;;;;;;;23.20;20.40;;;;;1.13;65.14;102006.86;479073;113;383085;-73
2020/12/05 02:30:16;;;;;;;;;27.40;22.00;;;;;1.13;65.14;102006.86;479577;113;384338;-72
2020/12/05 02:31:19;;;;;;;;;23.70;18.80;;;;;1.04;64.70;102007.87;480041;113;383570;-73
2020/12/05 02:32:23;;;;;;;;;30.80;21.50;;;;;1.10;64.49;102009.53;478120;114;384874;-72
2020/12/05 02:33:27;;;;;;;;;25.00;21.80;;;;;1.12;64.49;102011.23;479740;113;384588;-73
2020/12/05 02:34:31;;;;;;;;;21.80;17.70;;;;;1.12;64.49;102011.23;478080;114;382262;-74
2020/12/05 02:35:35;;;;;;;;;22.00;20.50;;;;;1.08;64.29;102018.27;477451;114;381399;-72
2020/12/05 02:36:41;;;;;;;;;22.10;19.50;;;;;0.99;64.72;102015.78;477578;114;381751;-74
2020/12/05 02:37:46;;;;;;;;;19.20;15.50;;;;;0.99;64.72;102015.78;480135;113;381393;-73
2020/12/05 02:38:55;;;;;;;;;25.80;22.50;;;;;0.97;65.21;102021.94;477348;113;385533;-72
2020/12/05 02:39:59;;;;;;;;;23.60;20.10;;;;;0.94;65.22;102022.84;477562;114;384150;-75
2020/12/05 02:41:03;;;;;;;;;22.10;20.40;;;;;0.94;65.86;102017.61;477793;114;383476;-74
2020/12/05 02:42:09;;;;;;;;;27.80;24.20;;;;;0.94;65.86;102017.61;477682;114;391157;-72
2020/12/05 02:43:13;;;;;;;;;29.00;26.90;;;;;0.97;65.72;102022.80;479042;113;383031;-75
2020/12/05 02:44:17;;;;;;;;;28.30;22.30;;;;;0.94;65.72;102022.84;478064;114;384872;-76
2020/12/05 02:45:20;;;;;;;;;28.80;24.30;;;;;0.95;66.60;102028.95;480086;113;383212;-73
2020/12/05 02:46:26;;;;;;;;;29.90;24.40;;;;;0.97;66.06;102027.17;477374;114;382956;-74
2020/12/05 02:47:30;;;;;;;;;30.30;23.20;;;;;0.97;66.06;102027.17;479348;113;383144;-70
2020/12/05 02:48:34;;;;;;;;;26.00;21.70;;;;;0.98;66.30;102027.16;480051;113;382781;-74
2020/12/05 02:49:37;;;;;;;;;29.00;22.10;;;;;1.01;66.37;102034.98;480048;113;382680;-73
2020/12/05 02:50:43;;;;;;;;;24.90;22.30;;;;;1.01;65.28;102034.11;479469;113;384341;-73
2020/12/05 02:51:47;;;;;;;;;16.60;16.00;;;;;1.01;65.06;102024.50;478178;114;384779;-74
2020/12/05 02:52:51;;;;;;;;;22.80;20.90;;;;;1.01;65.06;102024.50;479778;113;383022;-74
2020/12/05 02:53:56;;;;;;;;;23.80;19.90;;;;;1.04;64.70;102036.69;478142;114;383102;-74
2020/12/05 02:55:00;;;;;;;;;24.10;21.00;;;;;1.04;65.37;102027.08;479019;113;383660;-73
2020/12/05 02:56:03;;;;;;;;;22.70;19.20;;;;;1.02;64.95;102031.45;478156;114;384029;-73
2020/12/05 02:57:07;;;;;;;;;28.90;25.10;;;;;1.02;64.95;102031.45;479571;113;389508;-76
2020/12/05 02:58:11;;;;;;;;;22.30;17.40;;;;;1.03;65.02;102032.33;479643;113;383307;-74
2020/12/05 02:59:15;;;;;;;;;28.20;22.20;;;;;1.02;65.31;102034.07;478141;114;385127;-74
2020/12/05 03:00:19;;;;;;;;;22.20;20.90;;;;;1.08;65.32;102034.89;479764;113;390506;-73
2020/12/05 03:01:23;;;;;;;;;26.50;18.90;;;;;1.08;65.32;102034.89;480082;113;390133;-74
2020/12/05 03:02:27;;;;;;;;;25.60;22.10;;;;;1.08;65.11;102028.75;479635;113;384897;-74
2020/12/05 03:03:30;;;;;;;;;26.80;22.10;;;;;1.08;65.11;102028.75;479575;113;382835;-75
2020/12/05 03:04:34;;;;;;;;;27.90;19.10;;;;;1.04;65.32;102029.70;479590;113;384162;-75
2020/12/05 03:05:38;;;;;;;;;26.60;25.60;;;;;1.04;65.32;102029.70;477595;114;383051;-75
2020/12/05 03:06:42;;;;;;;;;31.20;24.80;;;;;1.06;65.51;102038.39;477355;114;391667;-74
2020/12/05 03:07:46;;;;;;;;;28.40;25.60;;;;;1.06;65.51;102038.39;478220;114;383224;-75
2020/12/05 03:08:49;;;;;;;;;23.90;18.80;;;;;1.09;64.96;102034.86;478937;114;381822;-74
2020/12/05 03:09:53;;;;;;;;;27.90;22.90;;;;;1.09;64.96;102034.86;478758;114;396137;-73
2020/12/05 03:10:57;;;;;;;;;26.70;23.10;;;;;1.06;65.06;102038.39;479283;114;383845;-73
2020/12/05 03:12:01;;;;;;;;;27.10;24.10;;;;;1.10;65.53;102033.98;479258;114;382934;-73
2020/12/05 03:13:05;;;;;;;;;29.70;23.20;;;;;1.06;65.88;102035.77;479265;114;382796;-74
2020/12/05 03:14:09;;;;;;;;;24.50;21.70;;;;;1.07;66.04;102039.27;479285;114;383072;-75
2020/12/05 03:15:12;;;;;;;;;25.10;20.90;;;;;1.03;67.20;102043.67;478763;114;391739;-75
2020/12/05 03:16:16;;;;;;;;;12.50;9.70;;;;;1.03;67.20;102043.67;478954;114;383638;-74
2020/12/05 03:17:20;;;;;;;;;32.80;26.10;;;;;0.98;66.92;102047.25;479266;114;383311;-73
2020/12/05 03:18:24;;;;;;;;;31.60;24.50;;;;;1.00;66.85;102040.23;479210;114;383668;-76
2020/12/05 03:19:28;;;;;;;;;31.90;26.90;;;;;1.00;66.85;102040.23;478718;114;384352;-75
2020/12/05 03:20:34;;;;;;;;;35.70;27.80;;;;;1.02;66.73;102041.09;478787;114;384961;-74
2020/12/05 03:21:37;;;;;;;;;24.00;20.80;;;;;1.05;66.55;102038.43;479220;114;386733;-75
2020/12/05 03:22:41;;;;;;;;;30.00;23.50;;;;;1.05;66.55;102038.43;478826;114;383755;-74
2020/12/05 03:23:46;;;;;;;;;28.40;22.90;;;;;1.05;67.02;102041.89;472532;115;383810;-73
2020/12/05 03:24:50;;;;;;;;;34.30;29.40;;;;;1.05;66.76;102039.27;472681;114;384775;-75
2020/12/05 03:25:56;;;;;;;;;24.50;21.60;;;;;1.05;66.74;102039.27;479218;114;388785;-74
2020/12/05 03:26:59;;;;;;;;;29.20;24.30;;;;;1.05;66.74;102039.27;479007;113;383995;-75
2020/12/05 03:28:03;;;;;;;;;29.80;23.00;;;;;1.08;67.46;102036.61;479285;114;382418;-74
2020/12/05 03:29:07;;;;;;;;;28.90;25.70;;;;;1.11;67.78;102037.47;479198;114;383660;-74
2020/12/05 03:30:12;;;;;;;;;31.40;25.50;;;;;1.09;67.47;102042.72;478982;114;383208;-73
2020/12/05 03:31:26;;;;;;;;;30.90;25.90;;;;;1.12;67.26;102037.44;478801;114;384439;-75
2020/12/05 03:32:28;;;;;;;;;27.90;21.00;;;;;1.12;67.08;102033.97;478612;114;383748;-75
2020/12/05 03:33:32;;;;;;;;;23.60;19.00;;;;;1.12;67.08;102033.97;478792;114;382705;-75
2020/12/05 03:34:36;;;;;;;;;24.70;20.40;;;;;1.10;67.03;102030.48;478803;114;383936;-74
2020/12/05 03:35:40;;;;;;;;;24.00;22.10;;;;;1.10;67.03;102030.48;472532;115;382031;-73
2020/12/05 03:36:44;;;;;;;;;25.10;20.50;;;;;1.15;66.94;102032.15;472634;115;383777;-75
2020/12/05 03:37:48;;;;;;;;;23.70;21.10;;;;;1.17;67.35;102037.38;479204;114;390508;-76
2020/12/05 03:38:53;;;;;;;;;23.20;17.90;;;;;1.16;67.75;102038.26;479248;114;390448;-77
2020/12/05 03:39:57;;;;;;;;;25.90;20.10;;;;;1.15;67.42;102042.63;478999;114;383141;-76
2020/12/05 03:41:01;;;;;;;;;24.60;14.90;;;;;1.15;67.42;102042.63;478942;114;380636;-76
2020/12/05 03:42:05;;;;;;;;;24.40;18.80;;;;;1.16;68.21;102038.26;479277;114;382340;-74
2020/12/05 03:43:08;;;;;;;;;26.50;17.20;;;;;1.13;68.68;102043.55;478744;114;390014;-76
2020/12/05 03:44:12;;;;;;;;;25.70;19.20;;;;;1.18;68.95;102044.37;478834;114;383651;-75
2020/12/05 03:45:16;;;;;;;;;28.30;23.00;;;;;1.14;68.80;102040.05;479279;114;384521;-73
2020/12/05 03:46:22;;;;;;;;;24.90;20.10;;;;;1.14;68.80;102040.05;478756;114;382109;-72
2020/12/05 03:47:26;;;;;;;;;33.00;23.50;;;;;1.21;68.31;102041.70;479236;114;384581;-73
2020/12/05 03:48:29;;;;;;;;;28.80;22.10;;;;;1.21;68.31;102041.70;479273;114;384874;-73
2020/12/05 03:49:33;;;;;;;;;21.70;19.10;;;;;1.21;68.71;102044.33;479234;114;383808;-72
2020/12/05 03:50:38;;;;;;;;;25.50;22.00;;;;;1.22;68.04;102039.05;479039;114;383834;-73
2020/12/05 03:51:42;;;;;;;;;29.90;23.50;;;;;1.22;68.00;102035.55;478820;114;384270;-72
2020/12/05 03:52:45;;;;;;;;;26.60;21.90;;;;;1.20;68.52;102038.21;478775;114;383399;-74
2020/12/05 03:53:49;;;;;;;;;24.90;20.80;;;;;1.23;68.97;102037.30;478836;114;383322;-82
2020/12/05 03:54:53;;;;;;;;;28.30;21.70;;;;;1.23;68.97;102037.30;479302;114;384314;-77
2020/12/05 03:55:57;;;;;;;;;23.40;16.10;;;;;1.21;69.32;102031.22;479314;114;382341;-81
2020/12/05 03:57:02;;;;;;;;;29.00;21.90;;;;;1.24;69.02;102041.66;478755;114;384991;-81
2020/12/05 03:58:06;;;;;;;;;22.80;18.70;;;;;1.23;67.86;102026.81;479245;114;388188;-83
2020/12/05 03:59:09;;;;;;;;;24.10;19.80;;;;;1.26;68.43;102034.63;478918;114;388809;-80
2020/12/05 04:00:14;;;;;;;;;28.70;22.60;;;;;1.26;68.43;102034.63;478515;114;384719;-81
2020/12/05 04:01:18;;;;;;;;;27.40;23.20;;;;;1.23;68.34;102045.16;478816;114;383483;-80
2020/12/05 04:02:22;;;;;;;;;28.00;22.00;;;;;1.24;69.22;102032.05;479242;114;385222;-80
2020/12/05 04:03:26;;;;;;;;;27.90;21.80;;;;;1.25;69.11;102036.38;479236;114;383507;-78
2020/12/05 04:04:29;;;;;;;;;24.80;21.80;;;;;1.33;69.20;102029.28;479332;114;383372;-78
2020/12/05 04:05:33;;;;;;;;;26.50;21.90;;;;;1.33;69.20;102029.28;479260;114;383711;-77
2020/12/05 04:06:38;;;;;;;;;27.00;20.50;;;;;1.37;68.79;102037.97;478542;114;384415;-74
2020/12/05 04:07:41;;;;;;;;;28.80;22.70;;;;;1.33;68.90;102036.28;479274;114;385059;-75
2020/12/05 04:08:45;;;;;;;;;16.20;13.80;;;;;1.33;68.90;102036.28;478807;114;380964;-76
2020/12/05 04:09:49;;;;;;;;;27.60;23.30;;;;;1.26;70.10;102043.36;477647;114;384145;-78
2020/12/05 04:10:53;;;;;;;;;25.40;19.80;;;;;1.31;69.85;102040.69;480083;113;384499;-76
2020/12/05 04:11:57;;;;;;;;;28.80;21.50;;;;;1.28;69.04;102041.58;478075;114;384366;-79
2020/12/05 04:13:01;;;;;;;;;28.60;22.00;;;;;1.29;69.20;102029.34;478180;114;384067;-79
2020/12/05 04:14:05;;;;;;;;;25.30;22.40;;;;;1.29;69.20;102029.34;480098;113;383076;-79
2020/12/05 04:15:09;;;;;;;;;26.90;20.60;;;;;1.33;69.53;102033.66;480095;113;382883;-78
2020/12/05 04:16:15;;;;;;;;;28.60;25.50;;;;;1.33;69.53;102033.66;477445;114;383487;-77
2020/12/05 04:17:19;;;;;;;;;26.70;21.80;;;;;1.32;69.53;102027.55;478121;114;383368;-77
2020/12/05 04:18:22;;;;;;;;;26.10;19.70;;;;;1.32;69.53;102027.55;480041;113;389763;-76
2020/12/05 04:19:26;;;;;;;;;30.30;23.30;;;;;1.28;69.65;102035.45;480066;113;382956;-77
2020/12/05 04:20:30;;;;;;;;;27.70;21.10;;;;;1.29;69.99;102037.20;478190;114;383419;-78
2020/12/05 04:21:34;;;;;;;;;25.30;22.00;;;;;1.30;69.31;102033.70;478090;114;383690;-79
2020/12/05 04:22:38;;;;;;;;;35.50;26.60;;;;;1.32;70.39;102034.53;480109;113;383890;-76
2020/12/05 04:23:42;;;;;;;;;34.60;25.10;;;;;1.36;70.73;102037.10;480061;113;383551;-76
2020/12/05 04:24:45;;;;;;;;;24.40;22.60;;;;;1.36;70.73;102037.10;479611;113;383729;-77
2020/12/05 04:25:50;;;;;;;;;35.50;26.90;;;;;1.37;69.44;102037.97;477668;114;383216;-77
2020/12/05 04:26:54;;;;;;;;;34.40;26.00;;;;;1.38;69.10;102024.83;479811;113;385055;-77
2020/12/05 04:27:58;;;;;;;;;20.60;19.00;;;;;1.35;69.44;102032.73;478104;114;382441;-76
2020/12/05 04:29:03;;;;;;;;;84.50;63.10;;;;;1.31;69.47;102032.83;479939;113;390064;-75
2020/12/05 04:30:07;;;;;;;;;41.10;34.80;;;;;1.31;69.47;102032.83;477205;114;386430;-74
2020/12/05 04:31:11;;;;;;;;;46.82;37.55;;;;;1.30;70.28;102031.95;479938;113;391761;-75
2020/12/05 04:32:15;;;;;;;;;27.50;26.10;;;;;1.26;71.05;102035.50;479620;113;383841;-75
2020/12/05 04:33:19;;;;;;;;;31.50;25.40;;;;;1.26;71.05;102035.50;478028;114;390845;-73
2020/12/05 04:34:23;;;;;;;;;30.70;23.70;;;;;1.21;70.55;102031.22;478100;114;383905;-75
2020/12/05 04:35:26;;;;;;;;;26.10;22.50;;;;;1.21;70.55;102031.22;479617;113;383599;-74
2020/12/05 04:36:32;;;;;;;;;29.90;25.30;;;;;1.22;69.97;102041.66;479274;113;386549;-74
2020/12/05 04:37:36;;;;;;;;;34.60;25.70;;;;;1.24;70.36;102033.80;480089;113;384336;-75
2020/12/05 04:38:39;;;;;;;;;26.20;20.00;;;;;1.24;70.36;102033.80;477698;114;382889;-75
2020/12/05 04:39:43;;;;;;;;;27.70;22.60;;;;;1.12;70.96;102015.63;477726;114;383625;-76
2020/12/05 04:40:47;;;;;;;;;26.40;21.70;;;;;1.27;70.96;102036.37;479613;113;383308;-78
2020/12/05 04:41:51;;;;;;;;;27.00;20.20;;;;;1.27;70.96;102036.37;478115;114;384693;-77
2020/12/05 04:42:55;;;;;;;;;24.00;19.90;;;;;1.30;70.00;102038.95;480067;113;384647;-76
2020/12/05 04:43:59;;;;;;;;;30.70;23.60;;;;;1.32;70.67;102039.77;479999;113;383892;-75
2020/12/05 04:45:03;;;;;;;;;27.80;23.30;;;;;1.32;70.67;102039.77;480031;113;391245;-75
2020/12/05 04:46:07;;;;;;;;;23.50;21.90;;;;;1.30;70.67;102045.05;478037;114;383577;-76
2020/12/05 04:47:11;;;;;;;;;22.00;20.00;;;;;1.32;70.71;102035.41;480075;113;382315;-74
2020/12/05 04:48:15;;;;;;;;;15.40;11.50;;;;;1.37;70.41;102036.19;480186;113;387163;-76
2020/12/05 04:49:19;;;;;;;;;18.90;13.10;;;;;1.37;70.41;102036.19;479585;113;386230;-76
2020/12/05 04:50:24;;;;;;;;;23.10;18.90;;;;;1.36;70.10;102033.61;479827;113;382803;-77
2020/12/05 04:51:28;;;;;;;;;23.60;18.60;;;;;1.34;70.52;102038.02;478034;114;381051;-75
2020/12/05 04:52:35;;;;;;;;;25.20;25.20;;;;;1.38;70.79;102042.30;478083;114;385090;-75